createdAt,value
2022-10-23T00:02:02.773Z,97.40
2022-10-23T00:04:31.594Z,97.33
2022-10-23T00:07:01.291Z,97.51
2022-10-23T00:09:29.790Z,97.52
2022-10-23T00:11:58.497Z,97.59
2022-10-23T00:14:26.875Z,97.73
2022-10-23T00:16:58.602Z,97.59
2022-10-23T00:19:36.560Z,97.31
2022-10-23T00:22:08.182Z,96.85
2022-10-23T00:24:38.769Z,96.87
2022-10-23T00:27:07.085Z,97.16
2022-10-23T00:29:37.539Z,97.29
2022-10-23T00:32:06.346Z,97.45
2022-10-23T00:34:35.710Z,97.46
2022-10-23T00:37:06.996Z,97.47
2022-10-23T00:39:35.333Z,97.33
2022-10-23T00:42:03.789Z,96.76
2022-10-23T00:45:09.016Z,96.97
2022-10-23T00:47:37.367Z,97.23
2022-10-23T00:50:11.765Z,97.56
2022-10-23T00:52:46.695Z,97.65
2022-10-23T00:55:15.898Z,97.70
2022-10-23T00:57:46.984Z,97.83
2022-10-23T01:00:19.102Z,97.72
2022-10-23T01:02:48.860Z,97.71
2022-10-23T01:05:18.962Z,98.05
2022-10-23T01:07:57.674Z,98.68
2022-10-23T01:10:34.801Z,98.97
2022-10-23T01:13:09.697Z,99.18
2022-10-23T01:15:45.827Z,99.13
2022-10-23T01:18:22.573Z,99.27
2022-10-23T01:21:01.604Z,99.28
2022-10-23T01:23:45.193Z,99.18
2022-10-23T01:26:25.018Z,99.04
2022-10-23T01:29:00.722Z,99.02
2022-10-23T01:31:35.912Z,99.09
2022-10-23T01:34:09.423Z,99.12
2022-10-23T01:36:41.076Z,99.08
2022-10-23T01:39:13.492Z,98.93
2022-10-23T01:41:45.758Z,98.87
2022-10-23T01:44:21.425Z,98.78
2022-10-23T01:46:52.485Z,98.76
2022-10-23T01:49:23.766Z,98.92
2022-10-23T01:51:58.361Z,99.01
2022-10-23T01:54:31.965Z,98.96
2022-10-23T01:57:01.924Z,98.91
2022-10-23T01:59:35.321Z,98.66
2022-10-23T02:02:06.326Z,98.43
2022-10-23T02:04:40.007Z,97.70
2022-10-23T02:07:08.945Z,97.86
2022-10-23T02:09:38.958Z,98.13
2022-10-23T02:12:12.077Z,98.60
2022-10-23T02:14:53.004Z,98.65
2022-10-23T02:17:27.606Z,98.87
2022-10-23T02:20:05.854Z,98.89
2022-10-23T02:22:42.045Z,99.03
2022-10-23T02:25:15.450Z,98.69
2022-10-23T02:27:46.939Z,98.17
2022-10-23T02:30:19.359Z,98.03
2022-10-23T02:32:52.068Z,98.33
2022-10-23T02:35:24.292Z,98.41
2022-10-23T02:37:57.458Z,98.58
2022-10-23T02:40:32.750Z,98.80
2022-10-23T02:43:07.615Z,98.96
2022-10-23T02:45:46.021Z,98.97
2022-10-23T02:48:21.772Z,99.18
2022-10-23T02:50:55.484Z,99.15
2022-10-23T02:53:36.850Z,99.09
2022-10-23T02:56:11.076Z,98.93
2022-10-23T02:58:46.697Z,99.46
2022-10-23T03:01:18.730Z,99.83
2022-10-23T03:03:53.578Z,99.99
2022-10-23T03:06:23.458Z,99.99
2022-10-23T03:08:55.825Z,99.90
2022-10-23T03:11:24.276Z,99.83
2022-10-23T03:13:57.790Z,99.03
2022-10-23T03:16:28.164Z,98.62
2022-10-23T03:18:56.734Z,98.60
2022-10-23T03:21:27.435Z,98.77
2022-10-23T03:23:56.445Z,98.96
2022-10-23T03:26:26.388Z,99.03
2022-10-23T03:28:56.804Z,99.12
2022-10-23T03:31:28.009Z,99.38
2022-10-23T03:33:58.293Z,99.59
2022-10-23T03:36:34.973Z,99.56
2022-10-23T03:39:07.271Z,99.53
2022-10-23T03:41:35.324Z,99.09
2022-10-23T03:44:08.753Z,99.02
2022-10-23T03:46:41.929Z,98.59
2022-10-23T03:49:11.176Z,98.72
2022-10-23T03:51:41.733Z,98.85
2022-10-23T03:54:12.703Z,99.04
2022-10-23T03:56:40.833Z,99.09
2022-10-23T03:59:09.965Z,99.20
2022-10-23T04:01:40.411Z,99.41
2022-10-23T04:04:08.884Z,99.46
2022-10-23T04:06:37.360Z,99.42
2022-10-23T04:09:06.488Z,99.30
2022-10-23T04:11:34.948Z,99.09
2022-10-23T04:14:03.367Z,99.02
2022-10-23T04:16:31.648Z,98.82
2022-10-23T04:19:01.574Z,98.90
2022-10-23T04:21:29.819Z,98.98
2022-10-23T04:23:58.200Z,99.24
2022-10-23T04:26:26.436Z,99.28
2022-10-23T04:28:55.979Z,98.94
2022-10-23T04:31:24.570Z,98.87
2022-10-23T04:33:52.635Z,98.69
2022-10-23T04:36:24.883Z,98.72
2022-10-23T04:38:53.816Z,98.46
2022-10-23T04:41:24.542Z,98.45
2022-10-23T04:43:52.898Z,98.57
2022-10-23T04:46:22.252Z,98.74
2022-10-23T04:48:50.406Z,99.00
2022-10-23T04:51:18.697Z,99.10
2022-10-23T04:53:55.239Z,99.31
2022-10-23T04:56:23.492Z,99.44
2022-10-23T04:58:52.762Z,99.43
2022-10-23T05:01:21.079Z,99.21
2022-10-23T05:03:49.661Z,99.14
2022-10-23T05:06:17.936Z,99.08
2022-10-23T05:08:46.240Z,99.36
2022-10-23T05:11:17.101Z,99.38
2022-10-23T05:13:46.377Z,99.49
2022-10-23T05:16:26.375Z,99.96
2022-10-23T05:18:57.136Z,99.99
2022-10-23T05:21:30.497Z,99.99
2022-10-23T05:24:02.640Z,99.99
2022-10-23T05:26:34.807Z,99.99
2022-10-23T05:29:03.297Z,99.99
2022-10-23T05:31:35.544Z,99.99
2022-10-23T05:34:04.302Z,99.99
2022-10-23T05:36:32.827Z,99.99
2022-10-23T05:39:01.050Z,99.54
2022-10-23T05:41:29.732Z,99.47
2022-10-23T05:43:59.647Z,99.54
2022-10-23T05:46:29.412Z,99.80
2022-10-23T05:51:31.399Z,99.90
2022-10-23T05:54:00.138Z,99.77
2022-10-23T05:56:29.582Z,99.90
2022-10-23T05:59:07.874Z,99.99
2022-10-23T06:01:36.525Z,99.99
2022-10-23T06:04:09.241Z,99.99
2022-10-23T06:06:37.870Z,99.99
2022-10-23T06:09:09.162Z,99.99
2022-10-23T06:11:42.916Z,99.99
2022-10-23T06:14:12.847Z,99.99
2022-10-23T06:16:47.574Z,99.99
2022-10-23T06:19:16.744Z,99.99
2022-10-23T06:21:44.936Z,99.99
2022-10-23T06:24:14.480Z,99.99
2022-10-23T06:26:45.871Z,99.99
2022-10-23T06:29:15.535Z,99.99
2022-10-23T06:31:50.535Z,99.99
2022-10-23T06:34:22.036Z,99.99
2022-10-23T06:36:50.260Z,99.99
2022-10-23T06:39:23.719Z,99.99
2022-10-23T06:41:54.513Z,99.99
2022-10-23T06:44:24.257Z,99.99
2022-10-23T06:46:55.755Z,99.99
2022-10-23T06:49:25.300Z,99.99
2022-10-23T06:51:57.189Z,99.99
2022-10-23T06:54:27.285Z,99.99
2022-10-23T06:56:55.371Z,99.99
2022-10-23T06:59:26.265Z,99.99
2022-10-23T07:01:59.149Z,99.99
2022-10-23T07:04:28.006Z,99.99
2022-10-23T07:06:58.719Z,99.99
2022-10-23T07:09:27.255Z,99.99
2022-10-23T07:11:57.614Z,99.99
2022-10-23T07:14:32.624Z,99.99
2022-10-23T07:17:04.108Z,99.99
2022-10-23T07:19:32.524Z,99.99
2022-10-23T07:22:02.223Z,99.99
2022-10-23T07:24:37.411Z,99.99
2022-10-23T07:27:07.278Z,99.99
2022-10-23T07:29:39.740Z,99.99
2022-10-23T07:32:09.299Z,99.99
2022-10-23T07:34:37.764Z,99.99
2022-10-23T07:37:16.722Z,99.70
2022-10-23T07:39:46.827Z,99.68
2022-10-23T07:42:15.063Z,99.53
2022-10-23T07:44:45.353Z,99.47
2022-10-23T07:47:13.682Z,99.18
2022-10-23T07:49:42.125Z,99.15
2022-10-23T07:52:10.524Z,98.93
2022-10-23T07:54:40.795Z,98.81
2022-10-23T07:57:12.602Z,98.56
2022-10-23T07:59:40.603Z,98.76
2022-10-23T08:02:14.231Z,98.60
2022-10-23T08:04:43.051Z,98.44
2022-10-23T08:07:11.150Z,98.02
2022-10-23T08:09:39.964Z,98.00
2022-10-23T08:12:12.197Z,97.79
2022-10-23T08:14:41.063Z,97.68
2022-10-23T08:17:09.895Z,97.37
2022-10-23T08:19:48.204Z,97.71
2022-10-23T08:22:17.872Z,97.20
2022-10-23T08:24:49.757Z,97.45
2022-10-23T08:27:23.520Z,97.01
2022-10-23T08:29:52.153Z,96.63
2022-10-23T08:32:20.381Z,96.62
2022-10-23T08:34:50.516Z,96.68
2022-10-23T08:37:20.894Z,96.61
2022-10-23T08:39:53.256Z,96.03
2022-10-23T08:42:24.322Z,95.63
2022-10-23T08:45:00.394Z,95.52
2022-10-23T08:47:38.124Z,95.06
2022-10-23T08:50:15.374Z,95.43
2022-10-23T08:52:49.009Z,94.91
2022-10-23T08:55:24.536Z,94.58
2022-10-23T08:57:58.356Z,94.09
2022-10-23T09:00:29.434Z,94.34
2022-10-23T09:03:02.784Z,93.58
2022-10-23T09:05:37.900Z,93.17
2022-10-23T09:08:25.039Z,93.81
2022-10-23T09:11:05.657Z,94.15
2022-10-23T09:14:03.074Z,93.86
2022-10-23T09:16:50.691Z,93.36
2022-10-23T09:19:25.199Z,93.85
2022-10-23T09:21:56.787Z,93.71
2022-10-23T09:24:27.570Z,93.43
2022-10-23T09:26:56.126Z,93.75
2022-10-23T09:29:27.009Z,93.49
2022-10-23T09:31:57.344Z,92.81
2022-10-23T09:34:27.600Z,92.91
2022-10-23T09:36:59.809Z,93.06
2022-10-23T09:39:30.598Z,92.87
2022-10-23T09:41:59.864Z,93.22
2022-10-23T09:44:31.974Z,92.43
2022-10-23T09:47:02.532Z,92.58
2022-10-23T09:49:33.992Z,92.37
2022-10-23T09:52:09.230Z,91.84
2022-10-23T09:54:45.073Z,91.31
2022-10-23T09:57:24.449Z,91.46
2022-10-23T10:00:00.814Z,90.80
2022-10-23T10:02:31.462Z,91.00
2022-10-23T10:05:02.222Z,91.68
2022-10-23T10:07:34.783Z,90.84
2022-10-23T10:10:16.115Z,90.70
2022-10-23T10:12:51.222Z,91.52
2022-10-23T10:15:23.954Z,91.37
2022-10-23T10:18:17.627Z,91.16
2022-10-23T10:21:12.802Z,91.52
2022-10-23T10:23:53.037Z,90.46
2022-10-23T10:26:36.090Z,90.84
2022-10-23T10:29:19.070Z,90.29
2022-10-23T10:31:59.203Z,90.45
2022-10-23T10:34:33.923Z,89.87
2022-10-23T10:37:15.962Z,89.76
2022-10-23T10:39:57.425Z,90.06
2022-10-23T10:42:45.739Z,89.09
2022-10-23T10:45:26.625Z,89.77
2022-10-23T10:48:14.700Z,88.98
2022-10-23T10:50:49.287Z,88.85
2022-10-23T10:53:25.551Z,88.84
2022-10-23T10:55:56.638Z,88.68
2022-10-23T10:58:36.763Z,88.59
2022-10-23T11:01:16.968Z,88.12
2022-10-23T11:03:53.642Z,87.57
2022-10-23T11:06:25.567Z,87.24
2022-10-23T11:08:57.369Z,87.63
2022-10-23T11:11:42.542Z,87.77
2022-10-23T11:14:16.841Z,87.81
2022-10-23T11:16:51.762Z,87.91
2022-10-23T11:19:24.640Z,87.24
2022-10-23T11:22:03.605Z,86.66
2022-10-23T11:25:24.389Z,86.64
2022-10-23T11:28:27.649Z,86.64
2022-10-23T11:31:12.128Z,86.16
2022-10-23T11:34:10.041Z,84.90
2022-10-23T11:36:45.611Z,84.53
2022-10-23T11:39:25.305Z,84.81
2022-10-23T11:41:56.657Z,84.37
2022-10-23T11:44:42.653Z,84.56
2022-10-23T11:47:28.363Z,84.64
2022-10-23T11:50:16.609Z,83.77
2022-10-23T11:53:15.021Z,83.57
2022-10-23T11:55:59.253Z,83.57
2022-10-23T11:58:41.556Z,83.86
2022-10-23T12:01:26.001Z,82.94
2022-10-23T12:04:01.517Z,83.07
2022-10-23T12:06:39.861Z,81.84
2022-10-23T12:09:28.420Z,82.14
2022-10-23T12:12:21.130Z,81.66
2022-10-23T12:14:54.198Z,80.56
2022-10-23T12:17:36.568Z,81.54
2022-10-23T12:20:29.433Z,80.81
2022-10-23T12:23:14.993Z,81.75
2022-10-23T12:25:52.675Z,80.36
2022-10-23T12:28:33.596Z,80.07
2022-10-23T12:31:20.734Z,79.81
2022-10-23T12:34:00.648Z,79.58
2022-10-23T12:36:46.072Z,79.75
2022-10-23T12:39:29.550Z,80.09
2022-10-23T12:42:00.394Z,79.90
2022-10-23T12:44:31.324Z,79.64
2022-10-23T12:47:02.251Z,80.04
2022-10-23T12:49:36.370Z,81.10
2022-10-23T12:52:14.909Z,81.31
2022-10-23T12:54:45.729Z,80.59
2022-10-23T12:57:23.244Z,79.77
2022-10-23T13:00:00.563Z,78.93
2022-10-23T13:02:32.194Z,80.05
2022-10-23T13:05:04.415Z,81.37
2022-10-23T13:07:35.076Z,82.40
2022-10-23T13:10:06.183Z,82.84
2022-10-23T13:12:41.119Z,83.10
2022-10-23T13:15:20.185Z,83.83
2022-10-23T13:18:05.079Z,83.12
2022-10-23T13:20:38.093Z,82.80
2022-10-23T13:23:19.231Z,82.88
2022-10-23T13:25:57.219Z,83.12
2022-10-23T13:28:33.725Z,83.94
2022-10-23T13:31:25.702Z,83.92
2022-10-23T13:34:06.992Z,84.49
2022-10-23T13:36:41.380Z,83.77
2022-10-23T13:39:16.970Z,84.32
2022-10-23T13:41:46.827Z,85.10
2022-10-23T13:44:17.048Z,84.46
2022-10-23T13:46:52.742Z,85.39
2022-10-23T13:49:25.856Z,85.81
2022-10-23T13:51:58.848Z,85.19
2022-10-23T13:54:30.082Z,86.09
2022-10-23T13:57:06.483Z,86.62
2022-10-23T13:59:37.644Z,86.31
2022-10-23T14:02:18.647Z,86.60
2022-10-23T14:04:47.424Z,86.50
2022-10-23T14:07:21.767Z,86.55
2022-10-23T14:09:52.055Z,86.31
2022-10-23T14:12:22.869Z,86.74
2022-10-23T14:14:55.640Z,86.82
2022-10-23T14:17:27.874Z,87.01
2022-10-23T14:19:58.550Z,87.10
2022-10-23T14:22:32.855Z,87.24
2022-10-23T14:25:05.436Z,87.69
2022-10-23T14:27:38.358Z,88.25
2022-10-23T14:30:08.506Z,87.61
2022-10-23T14:32:41.185Z,87.53
2022-10-23T14:35:13.682Z,88.09
2022-10-23T14:37:48.756Z,88.49
2022-10-23T14:40:18.830Z,88.27
2022-10-23T14:42:52.098Z,88.72
2022-10-23T14:45:21.870Z,88.18
2022-10-23T14:47:50.563Z,88.74
2022-10-23T14:50:22.659Z,88.63
2022-10-23T14:52:53.936Z,88.79
2022-10-23T14:55:22.229Z,88.88
2022-10-23T14:58:00.163Z,88.84
2022-10-23T15:00:30.386Z,88.63
2022-10-23T15:03:02.841Z,88.62
2022-10-23T15:05:35.892Z,88.60
2022-10-23T15:08:10.684Z,88.25
2022-10-23T15:10:42.729Z,88.43
2022-10-23T15:13:15.070Z,88.67
2022-10-23T15:15:46.637Z,88.98
2022-10-23T15:18:21.701Z,88.88
2022-10-23T15:20:54.013Z,89.00
2022-10-23T15:23:32.016Z,89.08
2022-10-23T15:26:03.447Z,89.50
2022-10-23T15:28:35.477Z,89.46
2022-10-23T15:31:05.412Z,89.45
2022-10-23T15:33:47.312Z,89.71
2022-10-23T15:36:16.949Z,90.10
2022-10-23T15:38:52.204Z,89.88
2022-10-23T15:41:28.504Z,89.95
2022-10-23T15:43:59.599Z,90.16
2022-10-23T15:46:33.936Z,90.07
2022-10-23T15:49:03.374Z,89.86
2022-10-23T15:51:40.738Z,89.78
2022-10-23T15:54:13.542Z,89.96
2022-10-23T15:56:44.467Z,89.71
2022-10-23T15:59:16.079Z,89.81
2022-10-23T16:01:49.285Z,89.91
2022-10-23T16:04:20.568Z,89.76
2022-10-23T16:06:52.311Z,89.79
2022-10-23T16:09:21.521Z,90.20
2022-10-23T16:11:50.592Z,90.27
2022-10-23T16:14:19.607Z,90.31
2022-10-23T16:16:48.204Z,90.51
2022-10-23T16:19:18.685Z,90.25
2022-10-23T16:21:47.144Z,90.06
2022-10-23T16:24:20.765Z,89.73
2022-10-23T16:26:53.430Z,89.93
2022-10-23T16:29:22.251Z,89.93
2022-10-23T16:31:51.207Z,90.25
2022-10-23T16:34:21.613Z,90.15
2022-10-23T16:36:51.820Z,90.76
2022-10-23T16:39:23.147Z,90.62
2022-10-23T16:41:51.552Z,91.12
2022-10-23T16:44:20.231Z,90.78
2022-10-23T16:46:48.780Z,90.22
2022-10-23T16:49:17.763Z,90.11
2022-10-23T16:51:46.919Z,90.02
2022-10-23T16:54:15.899Z,89.62
2022-10-23T16:56:46.023Z,89.83
2022-10-23T16:59:14.403Z,90.17
2022-10-23T17:01:43.472Z,90.34
2022-10-23T17:04:12.159Z,91.06
2022-10-23T17:06:42.101Z,91.03
2022-10-23T17:09:10.843Z,90.92
2022-10-23T17:11:41.053Z,90.04
2022-10-23T17:14:15.876Z,89.62
2022-10-23T17:16:47.344Z,88.82
2022-10-23T17:19:33.145Z,88.51
2022-10-23T17:22:10.856Z,88.56
2022-10-23T17:24:40.965Z,88.79
2022-10-23T17:27:10.389Z,88.81
2022-10-23T17:29:40.469Z,88.86
2022-10-23T17:32:09.154Z,89.41
2022-10-23T17:34:39.428Z,89.00
2022-10-23T17:37:08.199Z,89.01
2022-10-23T17:39:37.036Z,89.00
2022-10-23T17:42:05.500Z,88.99
2022-10-23T17:44:34.626Z,88.98
2022-10-23T17:47:04.872Z,89.97
2022-10-23T17:49:34.174Z,89.72
2022-10-23T17:52:03.159Z,89.55
2022-10-23T17:54:31.679Z,89.19
2022-10-23T17:57:00.378Z,89.14
2022-10-23T17:59:29.252Z,89.03
2022-10-23T18:02:00.248Z,89.05
2022-10-23T18:04:32.596Z,88.54
2022-10-23T18:07:01.609Z,88.29
2022-10-23T18:09:30.081Z,88.43
2022-10-23T18:11:59.040Z,88.23
2022-10-23T18:14:29.661Z,88.23
2022-10-23T18:16:58.435Z,88.36
2022-10-23T18:19:28.482Z,88.52
2022-10-23T18:21:59.459Z,88.63
2022-10-23T18:24:27.900Z,88.69
2022-10-23T18:26:57.073Z,88.85
2022-10-23T18:29:26.638Z,88.96
2022-10-23T18:31:55.774Z,89.30
2022-10-23T18:34:26.092Z,89.16
2022-10-23T18:37:01.292Z,89.58
2022-10-23T18:39:32.448Z,89.07
2022-10-23T18:42:02.059Z,88.97
2022-10-23T18:44:31.386Z,89.01
2022-10-23T18:47:00.977Z,89.26
2022-10-23T18:49:29.799Z,89.44
2022-10-23T18:51:59.753Z,89.34
2022-10-23T18:54:54.278Z,89.46
2022-10-23T18:57:24.606Z,89.62
2022-10-23T18:59:58.627Z,89.68
2022-10-23T19:02:28.076Z,89.91
2022-10-23T19:04:57.964Z,89.92
2022-10-23T19:07:29.051Z,89.84
2022-10-23T19:09:59.160Z,89.98
2022-10-23T19:12:27.993Z,89.95
2022-10-23T19:14:57.154Z,90.17
2022-10-23T19:17:29.861Z,89.99
2022-10-23T19:20:02.940Z,89.72
2022-10-23T19:22:37.004Z,89.33
2022-10-23T19:25:11.842Z,89.42
2022-10-23T19:27:41.652Z,89.51
2022-10-23T19:30:15.525Z,89.12
2022-10-23T19:32:46.762Z,89.40
2022-10-23T19:35:18.464Z,89.71
2022-10-23T19:37:48.320Z,89.72
2022-10-23T19:40:17.699Z,90.04
2022-10-23T19:42:46.343Z,90.32
2022-10-23T19:45:17.057Z,90.49
2022-10-23T19:47:46.290Z,90.58
2022-10-23T19:50:16.124Z,90.56
2022-10-23T19:52:46.385Z,90.60
2022-10-23T19:55:21.138Z,90.26
2022-10-23T19:57:53.120Z,90.81
2022-10-23T20:00:24.429Z,90.60
2022-10-23T20:02:55.330Z,90.48
2022-10-23T20:05:25.708Z,90.50
2022-10-23T20:07:56.449Z,90.77
2022-10-23T20:10:26.824Z,90.76
2022-10-23T20:13:08.150Z,90.85
2022-10-23T20:15:48.063Z,91.07
2022-10-23T20:18:16.696Z,91.12
2022-10-23T20:20:45.781Z,91.18
2022-10-23T20:23:16.602Z,91.40
2022-10-23T20:25:48.277Z,91.09
2022-10-23T20:28:17.627Z,91.20
2022-10-23T20:30:47.041Z,91.29
2022-10-23T20:33:16.629Z,91.38
2022-10-23T20:35:47.677Z,91.35
2022-10-23T20:38:17.696Z,91.44
2022-10-23T20:40:49.578Z,91.40
2022-10-23T20:43:18.223Z,91.62
2022-10-23T20:45:46.991Z,92.03
2022-10-23T20:48:15.662Z,92.24
2022-10-23T20:50:45.846Z,92.26
2022-10-23T20:53:15.414Z,92.32
2022-10-23T20:55:46.806Z,92.34
2022-10-23T20:58:20.047Z,92.59
2022-10-23T21:00:50.356Z,92.62
2022-10-23T21:03:20.095Z,92.60
2022-10-23T21:05:50.989Z,92.70
2022-10-23T21:08:21.255Z,93.08
2022-10-23T21:10:49.495Z,93.24
2022-10-23T21:13:19.229Z,93.20
2022-10-23T21:15:48.301Z,93.34
2022-10-23T21:18:26.536Z,93.42
2022-10-23T21:21:03.156Z,93.93
2022-10-23T21:23:32.899Z,94.06
2022-10-23T21:26:06.326Z,94.08
2022-10-23T21:28:40.020Z,94.14
2022-10-23T21:31:13.580Z,94.02
2022-10-23T21:33:44.092Z,93.97
2022-10-23T21:36:17.122Z,94.05
2022-10-23T21:38:45.997Z,94.11
2022-10-23T21:41:16.444Z,94.18
2022-10-23T21:43:47.048Z,94.13
2022-10-23T21:46:19.232Z,93.97
2022-10-23T21:48:51.325Z,93.96
2022-10-23T21:51:25.818Z,94.03
2022-10-23T21:53:55.130Z,93.95
2022-10-23T21:56:31.191Z,93.96
2022-10-23T22:01:40.778Z,93.97
2022-10-23T22:04:11.440Z,93.87
2022-10-23T22:06:40.013Z,94.01
2022-10-23T22:09:09.658Z,94.29
2022-10-23T22:11:38.359Z,94.50
2022-10-23T22:14:10.468Z,94.47
2022-10-23T22:16:39.338Z,94.76
2022-10-23T22:19:07.849Z,94.78
2022-10-23T22:21:35.958Z,94.81
2022-10-23T22:24:09.591Z,94.86
2022-10-23T22:26:39.198Z,94.99
2022-10-23T22:29:11.846Z,95.08
2022-10-23T22:31:44.216Z,94.98
2022-10-23T22:34:28.744Z,95.09
2022-10-23T22:37:07.459Z,95.31
2022-10-23T22:39:36.166Z,95.32
2022-10-23T22:42:04.444Z,95.40
2022-10-23T22:44:35.618Z,95.40
2022-10-23T22:47:06.424Z,95.41
2022-10-23T22:49:38.422Z,95.32
2022-10-23T22:52:07.602Z,95.40
2022-10-23T22:54:38.724Z,95.30
2022-10-23T22:57:11.563Z,95.31
2022-10-23T22:59:42.004Z,95.25
2022-10-23T23:02:10.316Z,95.15
2022-10-23T23:04:39.523Z,95.08
2022-10-23T23:07:08.854Z,95.23
2022-10-23T23:09:39.235Z,95.29
2022-10-23T23:12:09.177Z,95.32
2022-10-23T23:14:37.418Z,95.28
2022-10-23T23:17:08.359Z,95.44
2022-10-23T23:19:37.021Z,95.10
2022-10-23T23:22:05.756Z,95.02
2022-10-23T23:24:34.455Z,95.15
2022-10-23T23:27:03.179Z,95.23
2022-10-23T23:29:31.737Z,95.41
2022-10-23T23:31:59.867Z,95.45
2022-10-23T23:34:30.507Z,95.63
2022-10-23T23:36:58.947Z,95.73
2022-10-23T23:39:28.772Z,95.78
2022-10-23T23:41:57.238Z,95.94
2022-10-23T23:44:25.390Z,96.23
2022-10-23T23:46:56.938Z,96.16
2022-10-23T23:49:26.463Z,96.18
2022-10-23T23:51:56.498Z,96.40
2022-10-23T23:54:24.699Z,96.43
2022-10-23T23:56:53.855Z,96.67
2022-10-23T23:59:22.784Z,96.78
